Time;durP1;ratioP1;P1;durP2;ratioP2;P2;SDS_P1;SDS_P2;PMS_P1;PMS_P2;Temp;Humidity;BMP_temperature;BMP_pressure;BME280_temperature;BME280_humidity;BME280_pressure;Samples;Min_cycle;Max_cycle;Signal;HPM_P1;HPM_P2
2022/01/04 00:01:15;;;;;;;7.30;6.67;;;;;;;8.61;81.61;99569.84;5056887;28;20213;-81
2022/01/04 00:03:42;;;;;;;8.97;7.20;;;;;;;8.59;81.42;99572.50;5056684;28;20205;-78
2022/01/04 00:06:08;;;;;;;7.17;6.50;;;;;;;8.58;81.39;99572.53;5057324;28;20718;-81
2022/01/04 00:08:35;;;;;;;7.77;6.97;;;;;;;8.48;81.71;99562.38;5057799;28;20226;-80
2022/01/04 00:11:08;;;;;;;7.87;7.27;;;;;;;8.52;81.45;99553.59;5057353;28;20205;-80
2022/01/04 00:13:35;;;;;;;7.60;6.97;;;;;;;8.49;81.39;99563.22;5056775;28;20208;-81
2022/01/04 00:16:05;;;;;;;10.00;7.40;;;;;;;8.39;81.35;99556.50;5056701;28;20236;-81
2022/01/04 00:18:33;;;;;;;7.73;7.03;;;;;;;8.30;81.88;99553.19;5057435;28;20215;-80
2022/01/04 00:20:59;;;;;;;7.60;6.90;;;;;;;8.35;81.82;99540.09;5056951;28;20212;-81
2022/01/04 00:23:26;;;;;;;8.30;6.50;;;;;;;8.33;81.87;99532.34;5048357;28;20266;-81
2022/01/04 00:25:52;;;;;;;7.47;6.77;;;;;;;8.31;82.28;99521.13;5057361;28;20239;-80
2022/01/04 00:28:19;;;;;;;7.50;6.80;;;;;;;8.39;81.62;99526.13;5056697;28;20262;-81
2022/01/04 00:30:45;;;;;;;9.07;7.27;;;;;;;8.41;81.68;99526.09;5056784;28;20258;-81
2022/01/04 00:33:14;;;;;;;8.10;7.33;;;;;;;8.43;81.55;99534.75;5056968;28;20672;-81
2022/01/04 00:35:41;;;;;;;7.37;6.67;;;;;;;8.33;81.79;99519.34;5056943;28;20233;-81
2022/01/04 00:38:08;;;;;;;11.40;6.97;;;;;;;8.29;82.24;99517.72;5057604;28;20254;-81
2022/01/04 00:40:35;;;;;;;10.10;7.17;;;;;;;8.28;82.21;99510.78;5056982;28;20213;-81
2022/01/04 00:43:02;;;;;;;6.63;6.13;;;;;;;8.13;81.86;99508.59;5056188;28;20262;-81
2022/01/04 00:45:32;;;;;;;8.10;6.97;;;;;;;8.20;82.61;99488.47;5056694;28;20223;-81
2022/01/04 00:50:44;;;;;;;7.33;6.63;;;;;;;8.15;82.68;99470.41;5056150;28;20250;-80
2022/01/04 00:53:10;;;;;;;7.33;6.27;;;;;;;8.10;82.81;99467.06;5048501;28;20196;-81
2022/01/04 00:55:37;;;;;;;7.30;6.60;;;;;;;8.16;82.99;99453.91;5055760;28;20228;-81
2022/01/04 00:58:04;;;;;;;9.50;6.37;;;;;;;8.24;82.35;99456.31;5056929;28;20228;-81
2022/01/04 01:00:31;;;;;;;6.77;5.97;;;;;;;8.27;81.82;99459.69;5056549;28;20264;-81
2022/01/04 01:02:58;;;;;;;6.90;6.30;;;;;;;8.31;81.60;99460.47;5056543;28;20251;-81
2022/01/04 01:05:26;;;;;;;7.13;6.17;;;;;;;8.34;82.01;99455.19;5059055;28;20251;-81
2022/01/04 01:07:54;;;;;;;6.90;6.37;;;;;;;8.35;81.67;99462.94;5057229;28;20206;-82
2022/01/04 01:10:40;;;;;;;7.20;5.90;;;;;;;8.18;81.86;99462.50;5056504;28;20268;-81
2022/01/04 01:13:06;;;;;;;8.60;6.80;;;;;;;8.30;81.36;99453.56;5055629;28;20667;-81
2022/01/04 01:15:34;;;;;;;6.53;5.90;;;;;;;8.25;81.66;99452.84;5056193;28;20237;-81
2022/01/04 01:18:01;;;;;;;7.07;6.37;;;;;;;8.27;82.14;99433.69;5053039;28;20724;-81
2022/01/04 01:20:27;;;;;;;7.17;5.83;;;;;;;8.33;81.93;99438.72;5051501;28;20204;-81
2022/01/04 01:22:55;;;;;;;9.07;6.90;;;;;;;8.35;81.76;99436.94;5055594;28;20208;-79
2022/01/04 01:25:21;;;;;;;10.33;6.50;;;;;;;8.40;81.67;99434.22;5057820;28;20353;-81
2022/01/04 01:27:47;;;;;;;6.67;5.93;;;;;;;8.21;82.21;99425.22;5056098;28;20202;-81
2022/01/04 01:30:14;;;;;;;8.20;6.53;;;;;;;8.30;81.92;99424.94;5055722;28;20628;-81
2022/01/04 01:32:41;;;;;;;7.27;6.67;;;;;;;8.38;82.44;99416.97;5055657;28;20239;-81
2022/01/04 01:35:08;;;;;;;9.53;7.30;;;;;;;8.46;81.94;99421.13;5056059;28;20237;-81
2022/01/04 01:37:35;;;;;;;10.63;6.73;;;;;;;8.39;81.58;99427.31;5055542;28;20243;-81
2022/01/04 01:40:04;;;;;;;8.87;6.73;;;;;;;8.40;81.59;99405.63;5055953;28;20281;-81
2022/01/04 01:42:30;;;;;;;7.20;6.07;;;;;;;8.38;82.80;99398.75;5056497;28;20250;-81
2022/01/04 01:44:56;;;;;;;6.53;5.90;;;;;;;8.34;82.74;99384.97;5056271;28;20233;-81
2022/01/04 01:47:23;;;;;;;5.83;5.30;;;;;;;8.32;83.04;99371.16;5055862;28;20234;-82
2022/01/04 01:49:49;;;;;;;7.00;6.30;;;;;;;8.24;83.13;99373.13;5048159;28;20687;-81
2022/01/04 01:52:16;;;;;;;8.80;6.10;;;;;;;8.27;83.30;99360.91;5055930;28;20217;-81
2022/01/04 01:54:42;;;;;;;8.43;5.60;;;;;;;8.35;82.94;99358.09;5056481;28;20239;-79
2022/01/04 01:57:10;;;;;;;7.10;6.00;;;;;;;8.38;82.62;99372.75;5055819;28;20255;-81
2022/01/04 01:59:37;;;;;;;8.00;6.23;;;;;;;8.46;82.87;99365.63;5055941;28;20209;-81
2022/01/04 02:02:04;;;;;;;7.70;5.50;;;;;;;8.47;82.33;99373.38;5055796;28;20207;-81
2022/01/04 02:04:30;;;;;;;7.10;5.73;;;;;;;8.40;82.65;99368.38;5055985;28;20740;-82
2022/01/04 02:06:57;;;;;;;9.33;5.50;;;;;;;8.42;82.52;99366.59;5057044;28;20228;-81
2022/01/04 02:09:25;;;;;;;6.27;5.10;;;;;;;8.37;82.68;99350.25;5056278;28;20212;-81
2022/01/04 02:11:52;;;;;;;5.80;5.33;;;;;;;8.47;82.74;99349.13;5055800;28;20235;-81
2022/01/04 02:14:24;;;;;;;7.63;5.47;;;;;;;8.38;82.47;99345.00;5056826;28;20220;-81
2022/01/04 02:16:50;;;;;;;6.43;4.87;;;;;;;8.38;82.72;99325.94;5055079;28;20236;-81
2022/01/04 02:19:17;;;;;;;6.80;5.07;;;;;;;8.33;83.27;99315.69;5053857;28;20217;-81
2022/01/04 02:21:45;;;;;;;7.50;5.47;;;;;;;8.37;82.72;99319.06;5056120;28;20307;-80
2022/01/04 02:24:11;;;;;;;6.93;5.27;;;;;;;8.34;83.17;99328.66;5056334;28;20208;-81
2022/01/04 02:26:40;;;;;;;5.33;4.83;;;;;;;8.30;83.39;99302.75;5058952;28;20275;-81
2022/01/04 02:29:07;;;;;;;5.67;4.60;;;;;;;8.18;84.01;99285.75;5059800;28;20270;-81
2022/01/04 02:31:34;;;;;;;5.50;4.67;;;;;;;8.25;84.00;99281.25;5059562;28;20610;-80
2022/01/04 02:34:00;;;;;;;7.43;4.67;;;;;;;8.26;83.67;99281.19;5059569;28;20744;-81
2022/01/04 02:36:27;;;;;;;6.20;4.60;;;;;;;8.28;83.59;99286.34;5059949;28;20282;-82
2022/01/04 02:38:55;;;;;;;6.53;5.13;;;;;;;8.32;83.84;99285.38;5059805;28;20226;-81
2022/01/04 02:41:21;;;;;;;4.37;3.97;;;;;;;8.37;83.35;99285.25;5058930;28;20266;-81
2022/01/04 02:43:48;;;;;;;4.17;3.33;;;;;;;8.29;83.38;99294.13;5058846;28;20262;-81
2022/01/04 02:46:14;;;;;;;5.80;3.23;;;;;;;8.20;83.89;99276.16;5058429;28;20792;-81
2022/01/04 02:48:43;;;;;;;6.13;3.50;;;;;;;8.15;83.98;99273.72;5058246;28;20196;-81
2022/01/04 02:51:09;;;;;;;4.30;3.90;;;;;;;8.20;84.29;99270.97;5039218;28;20212;-82
2022/01/04 02:53:36;;;;;;;3.30;3.00;;;;;;;8.17;84.19;99258.06;5038707;28;20210;-82
2022/01/04 02:56:04;;;;;;;4.40;3.60;;;;;;;8.19;84.57;99256.28;5044351;28;20788;-81
2022/01/04 02:58:30;;;;;;;3.87;3.10;;;;;;;8.18;84.39;99251.13;5059261;28;20228;-81
2022/01/04 03:00:56;;;;;;;5.73;3.37;;;;;;;8.09;85.13;99223.66;5057876;28;20235;-82
2022/01/04 03:03:24;;;;;;;7.03;3.53;;;;;;;8.04;85.87;99209.94;5058354;28;20209;-82
2022/01/04 03:05:50;;;;;;;4.30;3.23;;;;;;;8.08;85.34;99212.38;5058164;28;20229;-82
2022/01/04 03:08:16;;;;;;;4.20;3.60;;;;;;;8.13;85.61;99207.91;5049301;28;20201;-81
2022/01/04 03:10:43;;;;;;;3.83;3.00;;;;;;;8.24;85.13;99212.78;5046460;28;20199;-81
2022/01/04 03:13:10;;;;;;;3.33;2.63;;;;;;;8.23;83.88;99229.31;5047983;28;20197;-81
2022/01/04 03:15:37;;;;;;;3.30;3.00;;;;;;;8.27;84.25;99232.66;5046240;28;20268;-82
2022/01/04 03:18:04;;;;;;;3.67;2.50;;;;;;;8.29;84.58;99233.47;5048259;28;20224;-82
2022/01/04 03:20:30;;;;;;;2.60;2.20;;;;;;;8.33;83.99;99230.72;5046657;28;20224;-82
2022/01/04 03:22:56;;;;;;;2.83;2.17;;;;;;;8.40;83.89;99239.19;5046344;28;20202;-82
2022/01/04 03:25:23;;;;;;;2.87;2.67;;;;;;;8.32;83.72;99249.84;5046324;28;20221;-82
2022/01/04 03:27:49;;;;;;;2.53;2.17;;;;;;;8.29;83.33;99243.88;5048485;28;20252;-81
2022/01/04 03:30:17;;;;;;;2.63;2.43;;;;;;;8.34;82.97;99247.19;5046198;28;20253;-82
2022/01/04 03:32:43;;;;;;;3.90;2.20;;;;;;;8.35;82.95;99241.94;5046010;28;20278;-81
2022/01/04 03:35:10;;;;;;;3.03;2.27;;;;;;;8.27;83.26;99238.72;5046296;28;20781;-82
2022/01/04 03:37:37;;;;;;;2.43;2.20;;;;;;;8.27;82.93;99237.88;5046082;28;20206;-81
2022/01/04 03:40:04;;;;;;;2.07;1.87;;;;;;;8.37;82.86;99236.69;5037799;28;20214;-81
2022/01/04 03:42:30;;;;;;;2.73;2.30;;;;;;;8.39;82.99;99236.66;5036812;28;20267;-82
2022/01/04 03:44:57;;;;;;;2.37;1.80;;;;;;;8.46;82.80;99240.81;5037600;28;20291;-82
2022/01/04 03:47:24;;;;;;;2.13;1.90;;;;;;;8.50;82.32;99240.69;5041859;28;20213;-82
2022/01/04 03:49:51;;;;;;;2.07;1.97;;;;;;;8.53;81.84;99240.56;5045138;28;20232;-82
2022/01/04 03:52:17;;;;;;;2.57;2.37;;;;;;;8.45;82.27;99231.31;5036786;28;20216;-82
2022/01/04 03:54:43;;;;;;;3.37;2.40;;;;;;;8.43;82.28;99217.50;5037014;28;20750;-82
2022/01/04 03:57:10;;;;;;;2.40;2.20;;;;;;;8.48;82.52;99207.78;5037317;28;20209;-82
2022/01/04 03:59:36;;;;;;;2.80;2.60;;;;;;;8.47;82.99;99206.94;5036877;28;20229;-82
2022/01/04 04:02:03;;;;;;;3.00;2.67;;;;;;;8.46;82.63;99207.00;5036696;28;20829;-82
2022/01/04 04:04:30;;;;;;;2.87;2.30;;;;;;;8.37;82.94;99195.09;5037264;28;20603;-82
2022/01/04 04:06:57;;;;;;;2.90;2.70;;;;;;;8.37;83.22;99183.84;5036628;28;20230;-82
2022/01/04 04:09:23;;;;;;;3.80;2.70;;;;;;;8.15;84.07;99159.34;5056719;28;20208;-81
2022/01/04 04:11:49;;;;;;;3.40;2.83;;;;;;;8.29;83.52;99151.13;5056229;28;20205;-82
2022/01/04 04:14:16;;;;;;;2.93;2.60;;;;;;;8.19;83.58;99143.66;5057408;28;20206;-82
2022/01/04 04:16:42;;;;;;;4.33;3.17;;;;;;;8.03;84.63;99122.47;5056291;28;20803;-81
2022/01/04 04:19:08;;;;;;;3.50;3.23;;;;;;;8.12;84.66;99110.03;5047364;28;20637;-82
2022/01/04 04:21:36;;;;;;;3.40;3.20;;;;;;;8.19;84.07;99105.53;5056879;28;20584;-82
2022/01/04 04:24:03;;;;;;;3.93;3.53;;;;;;;8.17;83.96;99117.72;5056864;28;20251;-82
2022/01/04 04:26:29;;;;;;;3.40;3.20;;;;;;;8.16;83.78;99118.59;5056896;28;20281;-82
2022/01/04 04:28:56;;;;;;;3.13;2.80;;;;;;;8.13;83.85;99118.72;5056395;28;20230;-81
2022/01/04 04:31:22;;;;;;;2.83;2.63;;;;;;;8.17;83.69;99117.72;5056352;28;20204;-81
2022/01/04 04:33:48;;;;;;;2.87;2.63;;;;;;;8.15;83.56;99112.56;5056471;28;20581;-82
2022/01/04 04:36:16;;;;;;;2.37;2.27;;;;;;;8.21;83.77;99111.53;5056711;28;20229;-82
2022/01/04 04:38:44;;;;;;;2.20;2.00;;;;;;;8.19;83.18;99113.31;5056106;28;20224;-79
2022/01/04 04:41:11;;;;;;;2.27;2.17;;;;;;;8.24;83.03;99119.22;5056195;28;20267;-82
2022/01/04 04:43:37;;;;;;;2.57;2.37;;;;;;;8.14;82.95;99133.38;5056197;28;20207;-82
2022/01/04 04:46:03;;;;;;;2.40;2.20;;;;;;;8.15;83.09;99125.56;5056058;28;20298;-82
2022/01/04 04:48:30;;;;;;;2.50;2.20;;;;;;;8.15;82.35;99116.91;5047520;28;20199;-81
2022/01/04 04:50:56;;;;;;;2.20;2.10;;;;;;;8.18;82.26;99119.41;5054990;28;20692;-82
2022/01/04 04:53:22;;;;;;;2.80;2.50;;;;;;;8.13;82.81;99109.16;5055575;28;20208;-82
2022/01/04 04:55:50;;;;;;;2.30;2.10;;;;;;;8.15;83.18;99096.97;5056450;28;20225;-81
2022/01/04 04:58:17;;;;;;;2.20;2.00;;;;;;;8.20;82.71;99099.41;5056270;28;20274;-82
2022/01/04 05:00:43;;;;;;;1.90;1.80;;;;;;;8.19;82.23;99109.88;5056576;28;20227;-82
2022/01/04 05:03:10;;;;;;;2.30;1.93;;;;;;;8.16;82.07;99111.63;5055638;28;20209;-82
2022/01/04 05:05:36;;;;;;;2.80;2.40;;;;;;;8.22;81.83;99109.75;5056208;28;20232;-82
2022/01/04 05:08:02;;;;;;;2.57;2.37;;;;;;;8.15;82.09;99111.72;5055418;28;20205;-82
2022/01/04 05:10:29;;;;;;;2.47;2.17;;;;;;;8.15;81.63;99109.13;5056396;28;20204;-82
2022/01/04 05:12:56;;;;;;;2.80;1.90;;;;;;;8.10;82.45;99101.44;5055683;28;20622;-82
2022/01/04 05:15:23;;;;;;;3.03;2.27;;;;;;;8.00;82.17;99087.03;5082248;22;20245;-78
2022/01/04 05:17:49;;;;;;;2.40;1.97;;;;;;;8.04;82.23;99082.59;5107427;28;20596;-79
2022/01/04 05:20:15;;;;;;;2.00;1.80;;;;;;;8.07;82.44;99070.34;5109568;28;20223;-80
2022/01/04 05:22:42;;;;;;;2.17;2.00;;;;;;;8.12;81.99;99072.81;5094420;28;20211;-80
2022/01/04 05:25:09;;;;;;;2.30;1.90;;;;;;;8.05;81.45;99084.31;5094835;28;20207;-80
2022/01/04 05:27:35;;;;;;;2.07;1.97;;;;;;;8.08;81.69;99079.84;5074820;28;20297;-80
2022/01/04 05:30:04;;;;;;;2.00;1.90;;;;;;;8.10;81.51;99088.44;5089249;28;20203;-80
2022/01/04 05:32:31;;;;;;;2.10;2.00;;;;;;;7.99;81.11;99087.06;5094689;28;20251;-80
2022/01/04 05:34:57;;;;;;;2.23;2.03;;;;;;;8.02;81.30;99074.84;5095095;28;20204;-80
2022/01/04 05:37:23;;;;;;;2.47;1.73;;;;;;;7.97;80.96;99076.75;5095151;28;20223;-80
2022/01/04 05:39:50;;;;;;;1.80;1.70;;;;;;;7.95;80.87;99086.34;5092231;28;20259;-79
2022/01/04 05:42:17;;;;;;;2.47;2.27;;;;;;;7.98;81.41;99086.22;5088148;28;20265;-79
2022/01/04 05:44:43;;;;;;;2.20;2.00;;;;;;;7.93;80.76;99085.53;5095086;28;20203;-79
2022/01/04 05:47:12;;;;;;;2.27;2.07;;;;;;;7.97;80.98;99071.53;5094783;28;20223;-79
2022/01/04 05:49:38;;;;;;;2.37;2.07;;;;;;;8.00;81.55;99075.78;5094477;28;20287;-80
2022/01/04 05:52:05;;;;;;;2.17;2.07;;;;;;;8.05;81.23;99069.56;5094534;28;20206;-79
2022/01/04 05:54:31;;;;;;;2.33;2.13;;;;;;;8.07;81.17;99088.56;5095122;28;20211;-78
2022/01/04 05:56:58;;;;;;;2.53;1.90;;;;;;;8.00;80.96;99078.38;5095226;28;20277;-79
2022/01/04 05:59:24;;;;;;;2.90;2.20;;;;;;;7.81;81.29;99063.38;5096201;28;20607;-79
2022/01/04 06:01:50;;;;;;;3.77;2.53;;;;;;;7.88;81.38;99040.63;5098418;28;20264;-78
2022/01/04 06:04:18;;;;;;;1.80;1.70;;;;;;;8.01;81.96;99051.50;5099255;28;20207;-79
2022/01/04 06:06:44;;;;;;;2.53;1.77;;;;;;;8.01;81.41;99054.09;5099070;28;20648;-79
2022/01/04 06:09:19;;;;;;;1.83;1.67;;;;;;;7.95;81.85;99052.56;5097874;28;20665;-80
2022/01/04 06:11:58;;;;;;;2.53;2.33;;;;;;;7.92;81.74;99057.84;5089083;28;20575;-79
2022/01/04 06:17:10;;;;;;;2.53;2.33;;;;;;;7.83;81.72;99069.38;5090345;28;20724;-78
2022/01/04 06:19:38;;;;;;;2.67;2.57;;;;;;;7.79;82.58;99043.50;5098772;28;20801;-79
2022/01/04 06:22:05;;;;;;;2.70;2.50;;;;;;;7.80;82.31;99040.88;5098821;28;20285;-79
2022/01/04 06:24:31;;;;;;;2.83;2.63;;;;;;;7.80;82.60;99040.88;5098536;28;20223;-79
2022/01/04 06:26:58;;;;;;;2.60;2.40;;;;;;;7.78;83.07;99027.06;5098067;28;20238;-80
2022/01/04 06:29:26;;;;;;;3.57;3.10;;;;;;;7.85;82.64;99019.94;5098035;28;20266;-80
2022/01/04 06:31:52;;;;;;;2.40;2.30;;;;;;;7.94;83.08;99036.09;5097356;28;20229;-80
2022/01/04 06:34:18;;;;;;;3.83;2.40;;;;;;;7.90;83.24;99031.88;5097722;28;20207;-79
2022/01/04 06:36:46;;;;;;;2.83;2.63;;;;;;;7.76;83.59;99015.88;5098207;28;20235;-79
2022/01/04 06:39:12;;;;;;;2.90;2.70;;;;;;;7.72;84.25;98976.16;5098754;28;20220;-80
2022/01/04 06:41:39;;;;;;;2.67;2.47;;;;;;;7.82;83.94;98966.34;5098416;28;20233;-79
2022/01/04 06:44:06;;;;;;;3.00;2.80;;;;;;;7.93;83.06;98959.06;5097454;28;20222;-79
2022/01/04 06:46:33;;;;;;;2.77;2.57;;;;;;;7.95;83.02;98978.06;5089993;28;20268;-79
2022/01/04 06:48:59;;;;;;;3.60;2.60;;;;;;;8.01;82.70;98991.72;5098625;28;20208;-79
2022/01/04 06:51:26;;;;;;;2.70;2.50;;;;;;;8.08;82.99;98988.88;5098558;28;20207;-78
2022/01/04 06:53:53;;;;;;;3.80;3.13;;;;;;;8.06;82.75;98987.25;5098244;28;20261;-79
2022/01/04 06:56:20;;;;;;;3.23;2.93;;;;;;;8.14;82.93;98980.03;5098337;28;20222;-79
2022/01/04 06:58:46;;;;;;;3.07;2.80;;;;;;;8.08;83.23;98962.06;5098264;28;20288;-79
2022/01/04 07:01:12;;;;;;;3.47;3.17;;;;;;;8.18;82.80;98968.66;5097747;28;20207;-79
2022/01/04 07:03:38;;;;;;;3.40;3.10;;;;;;;8.18;82.75;98981.63;5097988;28;20208;-79
2022/01/04 07:06:05;;;;;;;3.23;3.03;;;;;;;8.23;82.63;98974.56;5098414;28;20223;-79
2022/01/04 07:08:31;;;;;;;3.43;3.23;;;;;;;8.23;82.21;98974.56;5098061;28;20205;-79
2022/01/04 07:10:59;;;;;;;3.77;3.47;;;;;;;8.27;82.52;98981.34;5096950;28;20252;-79
2022/01/04 07:13:25;;;;;;;3.33;3.13;;;;;;;8.26;82.52;98978.78;5097497;28;20253;-79
2022/01/04 07:15:51;;;;;;;3.83;3.53;;;;;;;8.18;82.52;98973.00;5088509;28;20303;-79
2022/01/04 07:18:18;;;;;;;3.53;3.33;;;;;;;8.20;82.67;98966.84;5096739;28;20210;-79
2022/01/04 07:20:44;;;;;;;3.77;3.47;;;;;;;8.13;83.60;98947.19;5089176;28;20234;-80
2022/01/04 07:23:10;;;;;;;4.23;3.93;;;;;;;8.11;83.54;98935.97;5096933;28;20678;-79
2022/01/04 07:25:37;;;;;;;4.40;4.10;;;;;;;8.18;83.29;98931.41;5097464;28;20227;-79
2022/01/04 07:28:05;;;;;;;3.80;3.50;;;;;;;8.21;83.26;98944.31;5097149;28;20211;-79
2022/01/04 07:30:31;;;;;;;4.37;4.00;;;;;;;8.24;83.12;98945.03;5097608;28;20261;-78
2022/01/04 07:32:58;;;;;;;4.40;4.10;;;;;;;8.24;82.96;98932.03;5096289;28;20237;-77
2022/01/04 07:35:24;;;;;;;4.20;4.00;;;;;;;8.24;83.13;98920.81;5096227;28;20203;-78
2022/01/04 07:37:50;;;;;;;5.17;4.77;;;;;;;8.24;83.53;98916.44;5087810;28;20616;-79
2022/01/04 07:40:17;;;;;;;5.37;4.97;;;;;;;8.19;83.27;98918.38;5093346;28;20223;-78
2022/01/04 07:42:44;;;;;;;5.23;4.83;;;;;;;7.98;83.46;98906.94;5095815;28;20230;-79
2022/01/04 07:45:12;;;;;;;5.40;5.00;;;;;;;8.04;84.04;98906.72;5096214;28;20203;-79
2022/01/04 07:47:40;;;;;;;5.30;4.90;;;;;;;8.06;83.98;98898.88;5093815;28;20279;-78
2022/01/04 07:50:08;;;;;;;5.43;5.03;;;;;;;8.03;83.47;98905.06;5092080;28;20196;-79
2022/01/04 07:52:35;;;;;;;5.47;5.03;;;;;;;7.97;84.30;98902.66;5086885;28;20195;-79
2022/01/04 07:55:02;;;;;;;6.17;5.67;;;;;;;7.94;83.98;98890.59;5086186;28;20210;-78
2022/01/04 07:57:28;;;;;;;5.57;5.17;;;;;;;7.97;84.46;98902.66;5086225;28;20514;-78
2022/01/04 07:59:54;;;;;;;5.70;5.30;;;;;;;8.02;84.51;98902.50;5087784;28;20219;-79
2022/01/04 08:02:22;;;;;;;6.30;5.70;;;;;;;8.00;83.93;98914.69;5087849;28;20207;-78
2022/01/04 08:04:49;;;;;;;6.60;5.90;;;;;;;7.98;84.07;98906.09;5086742;28;20203;-79
2022/01/04 08:07:15;;;;;;;5.90;5.20;;;;;;;7.89;83.79;98907.25;5084365;28;20269;-79
2022/01/04 08:09:42;;;;;;;6.40;5.83;;;;;;;7.75;84.41;98902.50;5086429;28;20196;-78
2022/01/04 08:12:09;;;;;;;6.10;5.60;;;;;;;7.85;84.63;98884.84;5084498;28;20210;-79
2022/01/04 08:14:35;;;;;;;5.67;5.27;;;;;;;7.82;84.15;98892.75;5089478;28;20225;-79
2022/01/04 08:17:02;;;;;;;6.03;5.53;;;;;;;7.86;83.90;98886.56;5085025;28;20223;-78
2022/01/04 08:19:29;;;;;;;6.40;5.90;;;;;;;7.79;84.18;98892.84;5091168;28;20227;-79
2022/01/04 08:21:56;;;;;;;6.60;4.90;;;;;;;7.89;84.51;98889.91;5086466;28;20209;-79
2022/01/04 08:24:22;;;;;;;5.97;5.50;;;;;;;7.83;84.13;98884.94;5085640;28;20640;-79
2022/01/04 08:26:48;;;;;;;5.80;5.20;;;;;;;7.86;83.76;98892.59;5086070;28;20230;-79
2022/01/04 08:29:15;;;;;;;5.63;5.17;;;;;;;7.86;84.29;98900.41;5084478;28;20217;-80
2022/01/04 08:31:41;;;;;;;6.60;5.90;;;;;;;7.72;84.08;98895.66;5084303;28;20222;-80
2022/01/04 08:34:08;;;;;;;6.13;5.10;;;;;;;7.77;84.09;98885.13;5087012;28;20745;-80
2022/01/04 08:36:38;;;;;;;6.07;5.47;;;;;;;7.78;83.72;98896.34;5086361;28;20224;-79
2022/01/04 08:39:04;;;;;;;5.30;4.80;;;;;;;7.73;83.57;98884.38;5085138;28;20207;-80
2022/01/04 08:41:30;;;;;;;4.95;4.53;;;;;;;7.81;83.76;98884.13;5087671;28;20403;-79
2022/01/04 08:43:57;;;;;;;5.70;5.20;;;;;;;7.91;83.49;98877.72;5089509;28;20195;-79
2022/01/04 08:46:24;;;;;;;5.33;4.87;;;;;;;8.01;83.03;98891.25;5085568;28;20220;-78
2022/01/04 08:48:51;;;;;;;5.60;5.10;;;;;;;8.05;83.00;98900.66;5086537;28;20204;-79
2022/01/04 08:51:17;;;;;;;5.60;5.10;;;;;;;8.02;83.64;98895.53;5085924;28;20200;-79
2022/01/04 08:53:45;;;;;;;5.47;4.97;;;;;;;8.08;82.45;98899.69;5085713;28;20204;-79
2022/01/04 08:56:11;;;;;;;5.70;5.20;;;;;;;8.10;82.82;98909.13;5086807;28;20223;-79
2022/01/04 08:58:37;;;;;;;5.30;4.80;;;;;;;8.06;82.67;98914.47;5089572;28;20196;-79
2022/01/04 09:01:04;;;;;;;5.40;4.90;;;;;;;8.13;82.47;98903.84;5085143;28;20223;-80
2022/01/04 09:03:30;;;;;;;5.80;5.33;;;;;;;8.19;81.92;98918.38;5086103;28;20208;-79
2022/01/04 09:05:57;;;;;;;5.60;5.13;;;;;;;8.23;81.84;98906.97;5092452;28;20283;-79
2022/01/04 09:08:23;;;;;;;6.17;5.60;;;;;;;8.26;81.84;98898.22;5085568;28;20208;-78
2022/01/04 09:10:50;;;;;;;5.40;4.90;;;;;;;8.26;81.70;98903.41;5085864;28;20208;-79
2022/01/04 09:13:19;;;;;;;5.73;4.80;;;;;;;8.22;81.57;98896.63;5085838;28;20662;-78
2022/01/04 09:18:42;;;;;;;5.57;5.10;;;;;;;7.94;82.08;98903.59;5084407;28;20652;-80
2022/01/04 09:18:43;;;;;;;4.83;4.37;;;;;;;7.98;82.16;98893.09;5091914;28;20211;-79
2022/01/04 09:21:09;;;;;;;5.27;4.77;;;;;;;8.05;82.12;98876.41;5086604;28;20219;-79
2022/01/04 09:23:36;;;;;;;5.50;4.37;;;;;;;8.00;82.35;98891.31;5086157;28;20238;-78
2022/01/04 09:26:04;;;;;;;5.27;4.80;;;;;;;7.86;82.02;98877.00;5083967;28;20457;-79
2022/01/04 09:28:31;;;;;;;5.33;4.83;;;;;;;7.96;83.05;98861.97;5085539;28;20306;-79
2022/01/04 09:30:58;;;;;;;4.70;4.20;;;;;;;8.00;82.70;98863.56;5088533;28;20667;-79
2022/01/04 09:33:25;;;;;;;17.73;16.23;;;;;;;8.06;82.70;98863.34;5085658;28;20257;-79
2022/01/04 09:35:51;;;;;;;5.17;4.73;;;;;;;8.09;82.12;98878.84;5084054;28;20220;-79
2022/01/04 09:38:19;;;;;;;5.07;4.53;;;;;;;8.07;82.78;98882.41;5092448;28;20200;-79
2022/01/04 09:40:46;;;;;;;5.00;4.50;;;;;;;8.07;82.29;98879.81;5094313;28;20634;-79
2022/01/04 09:43:13;;;;;;;4.60;4.10;;;;;;;8.07;81.97;98874.63;5093920;28;20212;-79
2022/01/04 09:45:40;;;;;;;5.43;4.13;;;;;;;7.97;82.20;98881.88;5094392;28;20241;-79
2022/01/04 09:48:06;;;;;;;5.37;4.87;;;;;;;7.83;83.37;98864.16;5092794;28;20624;-80
2022/01/04 09:50:35;;;;;;;5.43;4.93;;;;;;;7.99;83.24;98851.50;5093509;28;20195;-80
2022/01/04 09:53:04;;;;;;;4.47;4.00;;;;;;;7.74;82.84;98860.09;5093133;28;20730;-81
2022/01/04 09:55:30;;;;;;;4.30;3.90;;;;;;;7.92;83.15;98840.44;5091181;28;20199;-80
2022/01/04 09:57:57;;;;;;;3.90;3.50;;;;;;;7.82;83.48;98846.84;5083876;28;20255;-79
2022/01/04 10:00:24;;;;;;;4.17;3.77;;;;;;;7.87;83.29;98833.69;5084216;28;20214;-80
2022/01/04 10:02:51;;;;;;;4.00;3.67;;;;;;;8.02;83.18;98832.34;5082925;28;20206;-79
2022/01/04 10:05:20;;;;;;;4.93;4.53;;;;;;;8.02;82.50;98853.13;5092026;28;20661;-79
2022/01/04 10:07:48;;;;;;;5.23;4.30;;;;;;;8.12;82.63;98862.28;5095112;28;20208;-80
2022/01/04 10:10:16;;;;;;;8.80;5.37;;;;;;;8.22;82.31;98868.88;5094532;28;20202;-80
2022/01/04 10:12:51;;;;;;;5.97;5.10;;;;;;;8.26;82.77;98874.81;5094544;28;20215;-80
2022/01/04 10:15:31;;;;;;;6.23;5.27;;;;;;;8.30;82.37;98884.19;5089728;28;20195;-80
2022/01/04 10:17:58;;;;;;;6.17;5.57;;;;;;;8.25;82.04;98876.56;5089245;28;20677;-79
2022/01/04 10:20:24;;;;;;;6.17;5.53;;;;;;;8.27;83.24;98845.34;5089519;28;20704;-78
2022/01/04 10:22:51;;;;;;;6.93;6.23;;;;;;;8.19;83.07;98850.81;5093197;28;20207;-79
2022/01/04 10:25:19;;;;;;;6.20;5.53;;;;;;;8.21;82.37;98868.94;5087615;28;20208;-80
2022/01/04 10:27:47;;;;;;;6.60;6.00;;;;;;;8.18;82.65;98869.88;5085289;28;20210;-80
2022/01/04 10:30:20;;;;;;;8.77;6.97;;;;;;;7.98;83.13;98839.38;5084597;28;20610;-80
2022/01/04 10:32:51;;;;;;;7.17;6.47;;;;;;;7.74;83.99;98809.91;5083662;28;20230;-79
2022/01/04 10:35:26;;;;;;;6.97;6.37;;;;;;;7.85;83.67;98786.13;5091476;28;20253;-81
2022/01/04 10:37:53;;;;;;;6.90;6.20;;;;;;;7.90;84.46;98773.84;5093742;28;20217;-80
2022/01/04 10:40:20;;;;;;;9.00;7.50;;;;;;;7.94;84.21;98784.06;5093470;28;20219;-80
2022/01/04 10:42:46;;;;;;;8.77;7.03;;;;;;;8.05;83.88;98788.06;5093334;28;20673;-78
2022/01/04 10:45:28;;;;;;;8.17;7.37;;;;;;;7.99;83.58;98804.72;5094355;28;20255;-79
2022/01/04 10:48:09;;;;;;;8.13;7.30;;;;;;;8.07;83.41;98807.06;5095158;28;20287;-78
2022/01/04 10:50:36;;;;;;;8.67;7.10;;;;;;;8.12;83.46;98808.56;5094111;28;20290;-79
2022/01/04 10:53:04;;;;;;;8.30;7.57;;;;;;;8.10;83.15;98817.31;5097487;28;20255;-80
2022/01/04 10:55:33;;;;;;;9.37;7.80;;;;;;;8.05;83.22;98825.28;5097250;28;20203;-79
2022/01/04 10:58:00;;;;;;;7.27;6.67;;;;;;;8.07;83.47;98814.84;5090906;28;20262;-77
2022/01/04 11:00:28;;;;;;;7.97;7.17;;;;;;;7.94;82.93;98820.44;5092267;28;20586;-77
2022/01/04 11:02:55;;;;;;;8.13;7.33;;;;;;;8.01;83.48;98808.13;5096366;28;20609;-79
2022/01/04 11:05:22;;;;;;;9.57;7.57;;;;;;;8.10;83.60;98791.34;5096873;28;20195;-80
2022/01/04 11:08:00;;;;;;;9.80;7.23;;;;;;;8.15;83.50;98792.03;5097342;28;20264;-80
2022/01/04 11:10:28;;;;;;;8.60;7.03;;;;;;;7.98;83.17;98791.78;5095222;28;20202;-78
2022/01/04 11:12:56;;;;;;;11.20;7.63;;;;;;;8.02;83.01;98791.59;5096440;28;20210;-78
2022/01/04 11:15:23;;;;;;;11.90;8.80;;;;;;;7.73;84.15;98772.69;5095788;28;20660;-79
2022/01/04 11:17:50;;;;;;;9.63;8.67;;;;;;;7.75;84.82;98736.28;5100632;22;20235;-79
2022/01/04 11:20:17;;;;;;;10.57;9.47;;;;;;;7.52;84.93;98731.88;5070144;28;20220;-81
2022/01/04 11:22:46;;;;;;;9.97;8.93;;;;;;;7.34;85.55;98713.41;5066120;28;20205;-80
2022/01/04 11:25:15;;;;;;;10.17;9.17;;;;;;;7.61;86.21;98691.75;5065262;28;20207;-79
2022/01/04 11:27:43;;;;;;;11.33;10.13;;;;;;;7.81;85.85;98697.09;5067575;28;20223;-81
2022/01/04 11:30:26;;;;;;;12.93;10.23;;;;;;;7.96;84.68;98714.72;5068734;28;20219;-81
2022/01/04 11:32:56;;;;;;;11.87;9.90;;;;;;;8.14;83.81;98734.00;5066810;28;20200;-80
2022/01/04 11:35:26;;;;;;;11.77;9.77;;;;;;;8.22;83.23;98751.06;5064748;28;20656;-81
2022/01/04 11:37:54;;;;;;;9.03;7.97;;;;;;;7.99;82.88;98757.94;5065964;28;20220;-81
2022/01/04 11:40:26;;;;;;;9.40;8.60;;;;;;;7.99;83.09;98759.69;5062049;28;20226;-80
2022/01/04 11:42:53;;;;;;;10.30;9.40;;;;;;;7.98;83.10;98763.19;5066154;28;20201;-80
2022/01/04 11:45:38;;;;;;;12.90;9.57;;;;;;;8.01;83.38;98747.47;5063588;28;20251;-81
2022/01/04 11:48:05;;;;;;;9.93;9.03;;;;;;;7.92;83.14;98738.28;5064332;28;20714;-81